sensor_id;sensor_type;location;lat;lon;timestamp;temperature;humidity
51091;DHT22;37136;43.614;3.908;2022-10-16T00:00:38;19.10;1.00
51091;DHT22;37136;43.614;3.908;2022-10-16T00:03:05;19.10;1.00
51091;DHT22;37136;43.614;3.908;2022-10-16T00:05:31;19.00;1.00
51091;DHT22;37136;43.614;3.908;2022-10-16T00:07:57;19.00;1.00
51091;DHT22;37136;43.614;3.908;2022-10-16T00:10:23;19.00;1.00
51091;DHT22;37136;43.614;3.908;2022-10-16T00:12:49;19.00;1.00
51091;DHT22;37136;43.614;3.908;2022-10-16T00:15:15;18.90;1.00
51091;DHT22;37136;43.614;3.908;2022-10-16T00:17:41;18.90;1.00
51091;DHT22;37136;43.614;3.908;2022-10-16T00:20:07;19.00;1.00
51091;DHT22;37136;43.614;3.908;2022-10-16T00:22:33;19.00;1.00
51091;DHT22;37136;43.614;3.908;2022-10-16T00:24:59;18.90;1.00
51091;DHT22;37136;43.614;3.908;2022-10-16T00:27:24;19.00;1.00
51091;DHT22;37136;43.614;3.908;2022-10-16T00:29:51;19.00;1.00
51091;DHT22;37136;43.614;3.908;2022-10-16T00:32:18;19.00;1.00
51091;DHT22;37136;43.614;3.908;2022-10-16T00:34:44;18.90;1.00
51091;DHT22;37136;43.614;3.908;2022-10-16T00:37:11;18.90;1.00
51091;DHT22;37136;43.614;3.908;2022-10-16T00:39:37;19.00;1.00
51091;DHT22;37136;43.614;3.908;2022-10-16T00:42:03;18.90;1.00
51091;DHT22;37136;43.614;3.908;2022-10-16T00:44:54;18.90;1.00
51091;DHT22;37136;43.614;3.908;2022-10-16T00:49:55;18.90;1.00
51091;DHT22;37136;43.614;3.908;2022-10-16T00:52:23;18.90;1.00
51091;DHT22;37136;43.614;3.908;2022-10-16T00:54:50;19.00;1.00
51091;DHT22;37136;43.614;3.908;2022-10-16T00:57:18;19.00;1.00
51091;DHT22;37136;43.614;3.908;2022-10-16T00:59:44;18.90;1.00
51091;DHT22;37136;43.614;3.908;2022-10-16T01:02:13;18.90;1.00
51091;DHT22;37136;43.614;3.908;2022-10-16T01:04:46;19.00;1.00
51091;DHT22;37136;43.614;3.908;2022-10-16T01:10:30;19.00;1.00
51091;DHT22;37136;43.614;3.908;2022-10-16T01:15:51;18.90;1.00
51091;DHT22;37136;43.614;3.908;2022-10-16T01:23:34;18.90;1.00
51091;DHT22;37136;43.614;3.908;2022-10-16T01:26:19;19.00;1.00
51091;DHT22;37136;43.614;3.908;2022-10-16T01:29:02;18.90;1.00
51091;DHT22;37136;43.614;3.908;2022-10-16T01:31:31;19.00;1.00
51091;DHT22;37136;43.614;3.908;2022-10-16T01:34:05;18.90;1.00
51091;DHT22;37136;43.614;3.908;2022-10-16T01:36:38;18.90;1.00
51091;DHT22;37136;43.614;3.908;2022-10-16T01:39:08;18.90;1.00
51091;DHT22;37136;43.614;3.908;2022-10-16T01:41:39;18.90;1.00
51091;DHT22;37136;43.614;3.908;2022-10-16T01:44:12;19.00;1.00
51091;DHT22;37136;43.614;3.908;2022-10-16T01:46:41;18.90;1.00
51091;DHT22;37136;43.614;3.908;2022-10-16T01:49:09;19.00;1.00
51091;DHT22;37136;43.614;3.908;2022-10-16T01:51:37;19.00;1.00
51091;DHT22;37136;43.614;3.908;2022-10-16T01:54:04;18.90;1.00
51091;DHT22;37136;43.614;3.908;2022-10-16T01:56:34;18.90;1.00
51091;DHT22;37136;43.614;3.908;2022-10-16T01:59:10;18.90;1.00
51091;DHT22;37136;43.614;3.908;2022-10-16T02:01:40;19.00;1.00
51091;DHT22;37136;43.614;3.908;2022-10-16T02:04:36;19.00;1.00
51091;DHT22;37136;43.614;3.908;2022-10-16T02:06:59;18.90;1.00
51091;DHT22;37136;43.614;3.908;2022-10-16T02:09:25;19.00;1.00
51091;DHT22;37136;43.614;3.908;2022-10-16T02:11:54;19.00;1.00
51091;DHT22;37136;43.614;3.908;2022-10-16T02:14:21;19.00;1.00
51091;DHT22;37136;43.614;3.908;2022-10-16T02:16:50;19.10;1.00
51091;DHT22;37136;43.614;3.908;2022-10-16T02:19:17;18.90;1.00
51091;DHT22;37136;43.614;3.908;2022-10-16T02:22:01;19.10;1.00
51091;DHT22;37136;43.614;3.908;2022-10-16T02:30:49;18.90;1.00
51091;DHT22;37136;43.614;3.908;2022-10-16T02:33:16;19.00;1.00
51091;DHT22;37136;43.614;3.908;2022-10-16T02:35:45;19.00;1.00
51091;DHT22;37136;43.614;3.908;2022-10-16T02:38:13;19.00;1.00
51091;DHT22;37136;43.614;3.908;2022-10-16T02:40:40;19.00;1.00
51091;DHT22;37136;43.614;3.908;2022-10-16T02:43:06;19.00;1.00
51091;DHT22;37136;43.614;3.908;2022-10-16T02:45:33;19.00;1.00
51091;DHT22;37136;43.614;3.908;2022-10-16T02:47:59;18.90;1.00
51091;DHT22;37136;43.614;3.908;2022-10-16T02:50:24;19.00;1.00
51091;DHT22;37136;43.614;3.908;2022-10-16T02:52:50;19.00;1.00
51091;DHT22;37136;43.614;3.908;2022-10-16T02:55:16;19.10;1.00
51091;DHT22;37136;43.614;3.908;2022-10-16T02:57:42;19.20;1.00
51091;DHT22;37136;43.614;3.908;2022-10-16T03:00:11;19.10;1.00
51091;DHT22;37136;43.614;3.908;2022-10-16T03:02:37;19.10;1.00
51091;DHT22;37136;43.614;3.908;2022-10-16T03:05:03;19.10;1.00
51091;DHT22;37136;43.614;3.908;2022-10-16T03:07:29;19.10;1.00
51091;DHT22;37136;43.614;3.908;2022-10-16T03:09:55;19.20;1.00
51091;DHT22;37136;43.614;3.908;2022-10-16T03:12:21;19.20;1.00
51091;DHT22;37136;43.614;3.908;2022-10-16T03:14:47;19.10;1.00
51091;DHT22;37136;43.614;3.908;2022-10-16T03:17:13;19.20;1.00
51091;DHT22;37136;43.614;3.908;2022-10-16T03:19:42;19.30;1.00
51091;DHT22;37136;43.614;3.908;2022-10-16T03:22:07;19.30;1.00
51091;DHT22;37136;43.614;3.908;2022-10-16T03:24:33;19.30;1.00
51091;DHT22;37136;43.614;3.908;2022-10-16T03:26:59;19.20;1.00
51091;DHT22;37136;43.614;3.908;2022-10-16T03:29:26;19.30;1.00
51091;DHT22;37136;43.614;3.908;2022-10-16T03:31:53;19.30;1.00
51091;DHT22;37136;43.614;3.908;2022-10-16T03:34:18;19.30;1.00
51091;DHT22;37136;43.614;3.908;2022-10-16T03:36:44;19.30;1.00
51091;DHT22;37136;43.614;3.908;2022-10-16T03:39:10;19.40;1.00
51091;DHT22;37136;43.614;3.908;2022-10-16T03:41:36;19.30;1.00
51091;DHT22;37136;43.614;3.908;2022-10-16T03:44:01;19.40;1.00
51091;DHT22;37136;43.614;3.908;2022-10-16T03:46:27;19.40;1.00
51091;DHT22;37136;43.614;3.908;2022-10-16T03:48:53;19.40;1.00
51091;DHT22;37136;43.614;3.908;2022-10-16T03:51:18;19.30;1.00
51091;DHT22;37136;43.614;3.908;2022-10-16T03:53:44;19.40;1.00
51091;DHT22;37136;43.614;3.908;2022-10-16T03:56:10;19.40;1.00
51091;DHT22;37136;43.614;3.908;2022-10-16T03:58:36;19.40;1.00
51091;DHT22;37136;43.614;3.908;2022-10-16T04:01:01;19.50;1.00
51091;DHT22;37136;43.614;3.908;2022-10-16T04:03:27;19.50;1.00
51091;DHT22;37136;43.614;3.908;2022-10-16T04:05:53;19.40;1.00
51091;DHT22;37136;43.614;3.908;2022-10-16T04:08:18;19.50;1.00
51091;DHT22;37136;43.614;3.908;2022-10-16T04:10:44;19.50;1.00
51091;DHT22;37136;43.614;3.908;2022-10-16T04:13:11;19.50;1.00
51091;DHT22;37136;43.614;3.908;2022-10-16T04:15:37;19.50;1.00
51091;DHT22;37136;43.614;3.908;2022-10-16T04:18:04;19.50;1.00
51091;DHT22;37136;43.614;3.908;2022-10-16T04:20:30;19.40;1.00
51091;DHT22;37136;43.614;3.908;2022-10-16T04:22:56;19.50;1.00
51091;DHT22;37136;43.614;3.908;2022-10-16T04:25:22;19.50;1.00
51091;DHT22;37136;43.614;3.908;2022-10-16T04:27:48;19.40;1.00
51091;DHT22;37136;43.614;3.908;2022-10-16T04:30:13;19.60;14.00
51091;DHT22;37136;43.614;3.908;2022-10-16T04:32:40;19.70;15.40
51091;DHT22;37136;43.614;3.908;2022-10-16T04:35:06;19.70;11.50
51091;DHT22;37136;43.614;3.908;2022-10-16T04:37:32;19.70;17.40
51091;DHT22;37136;43.614;3.908;2022-10-16T04:39:57;19.90;19.90
51091;DHT22;37136;43.614;3.908;2022-10-16T04:42:23;19.90;18.50
51091;DHT22;37136;43.614;3.908;2022-10-16T04:44:49;19.90;21.90
51091;DHT22;37136;43.614;3.908;2022-10-16T04:47:15;20.10;22.60
51091;DHT22;37136;43.614;3.908;2022-10-16T04:49:40;20.20;22.00
51091;DHT22;37136;43.614;3.908;2022-10-16T04:52:06;20.20;21.90
51091;DHT22;37136;43.614;3.908;2022-10-16T04:54:32;20.20;21.90
51091;DHT22;37136;43.614;3.908;2022-10-16T04:56:58;20.20;22.20
51091;DHT22;37136;43.614;3.908;2022-10-16T04:59:23;20.20;21.70
51091;DHT22;37136;43.614;3.908;2022-10-16T05:01:49;20.20;21.50
51091;DHT22;37136;43.614;3.908;2022-10-16T05:04:16;20.10;23.40
51091;DHT22;37136;43.614;3.908;2022-10-16T05:06:42;20.10;20.80
51091;DHT22;37136;43.614;3.908;2022-10-16T05:09:08;20.00;14.20
51091;DHT22;37136;43.614;3.908;2022-10-16T05:11:34;19.90;10.00
51091;DHT22;37136;43.614;3.908;2022-10-16T05:14:00;19.80;9.30
51091;DHT22;37136;43.614;3.908;2022-10-16T05:16:26;19.80;9.00
51091;DHT22;37136;43.614;3.908;2022-10-16T05:18:53;19.90;13.80
51091;DHT22;37136;43.614;3.908;2022-10-16T05:21:19;20.00;19.10
51091;DHT22;37136;43.614;3.908;2022-10-16T05:23:45;20.10;16.00
51091;DHT22;37136;43.614;3.908;2022-10-16T05:26:10;19.90;9.10
51091;DHT22;37136;43.614;3.908;2022-10-16T05:28:36;19.80;4.20
51091;DHT22;37136;43.614;3.908;2022-10-16T05:31:06;19.80;5.20
51091;DHT22;37136;43.614;3.908;2022-10-16T05:33:33;19.70;2.70
51091;DHT22;37136;43.614;3.908;2022-10-16T05:36:06;19.70;2.30
51091;DHT22;37136;43.614;3.908;2022-10-16T05:38:33;19.60;1.00
51091;DHT22;37136;43.614;3.908;2022-10-16T05:41:00;19.60;1.40
51091;DHT22;37136;43.614;3.908;2022-10-16T05:43:27;19.70;1.00
51091;DHT22;37136;43.614;3.908;2022-10-16T05:46:06;19.60;1.00
51091;DHT22;37136;43.614;3.908;2022-10-16T05:48:32;19.50;1.00
51091;DHT22;37136;43.614;3.908;2022-10-16T05:51:03;19.60;1.00
51091;DHT22;37136;43.614;3.908;2022-10-16T05:53:31;19.40;1.00
51091;DHT22;37136;43.614;3.908;2022-10-16T05:55:58;19.50;1.00
51091;DHT22;37136;43.614;3.908;2022-10-16T05:58:24;19.40;1.00
51091;DHT22;37136;43.614;3.908;2022-10-16T06:00:59;19.40;1.00
51091;DHT22;37136;43.614;3.908;2022-10-16T06:03:26;19.40;1.00
51091;DHT22;37136;43.614;3.908;2022-10-16T06:05:52;19.50;1.00
51091;DHT22;37136;43.614;3.908;2022-10-16T06:08:19;19.50;1.00
51091;DHT22;37136;43.614;3.908;2022-10-16T06:10:46;19.40;1.00
51091;DHT22;37136;43.614;3.908;2022-10-16T06:13:13;19.30;1.00
51091;DHT22;37136;43.614;3.908;2022-10-16T06:15:40;19.50;1.00
51091;DHT22;37136;43.614;3.908;2022-10-16T06:18:08;19.30;1.00
51091;DHT22;37136;43.614;3.908;2022-10-16T06:20:34;19.30;1.00
51091;DHT22;37136;43.614;3.908;2022-10-16T06:23:00;19.30;1.00
51091;DHT22;37136;43.614;3.908;2022-10-16T06:25:26;19.20;1.00
51091;DHT22;37136;43.614;3.908;2022-10-16T06:27:51;19.20;1.00
51091;DHT22;37136;43.614;3.908;2022-10-16T06:30:17;19.30;1.00
51091;DHT22;37136;43.614;3.908;2022-10-16T06:32:43;19.30;1.00
51091;DHT22;37136;43.614;3.908;2022-10-16T06:35:09;19.30;1.00
51091;DHT22;37136;43.614;3.908;2022-10-16T06:37:35;19.30;1.00
51091;DHT22;37136;43.614;3.908;2022-10-16T06:40:00;19.40;1.00
51091;DHT22;37136;43.614;3.908;2022-10-16T06:42:26;19.40;1.00
51091;DHT22;37136;43.614;3.908;2022-10-16T06:44:52;19.30;1.00
51091;DHT22;37136;43.614;3.908;2022-10-16T06:47:17;19.30;1.00
51091;DHT22;37136;43.614;3.908;2022-10-16T06:49:43;19.30;1.00
51091;DHT22;37136;43.614;3.908;2022-10-16T06:52:09;19.30;1.00
51091;DHT22;37136;43.614;3.908;2022-10-16T06:54:34;19.50;1.00
51091;DHT22;37136;43.614;3.908;2022-10-16T06:57:00;19.50;1.00
51091;DHT22;37136;43.614;3.908;2022-10-16T06:59:27;19.40;1.00
51091;DHT22;37136;43.614;3.908;2022-10-16T07:01:53;19.50;1.00
51091;DHT22;37136;43.614;3.908;2022-10-16T07:04:18;19.40;1.00
51091;DHT22;37136;43.614;3.908;2022-10-16T07:06:44;19.60;1.00
51091;DHT22;37136;43.614;3.908;2022-10-16T07:09:11;19.70;1.00
51091;DHT22;37136;43.614;3.908;2022-10-16T07:11:38;19.70;1.00
51091;DHT22;37136;43.614;3.908;2022-10-16T07:14:14;19.70;1.00
51091;DHT22;37136;43.614;3.908;2022-10-16T07:16:40;19.70;1.00
51091;DHT22;37136;43.614;3.908;2022-10-16T07:19:06;19.70;1.00
51091;DHT22;37136;43.614;3.908;2022-10-16T07:21:33;19.70;1.00
51091;DHT22;37136;43.614;3.908;2022-10-16T07:24:07;19.60;1.00
51091;DHT22;37136;43.614;3.908;2022-10-16T07:26:35;19.70;1.00
51091;DHT22;37136;43.614;3.908;2022-10-16T07:29:02;19.70;1.00
51091;DHT22;37136;43.614;3.908;2022-10-16T07:31:29;19.70;1.00
51091;DHT22;37136;43.614;3.908;2022-10-16T07:33:54;19.80;1.00
51091;DHT22;37136;43.614;3.908;2022-10-16T07:36:21;19.70;1.00
51091;DHT22;37136;43.614;3.908;2022-10-16T07:38:47;19.70;1.00
51091;DHT22;37136;43.614;3.908;2022-10-16T07:41:16;19.60;1.00
51091;DHT22;37136;43.614;3.908;2022-10-16T07:43:49;19.70;1.00
51091;DHT22;37136;43.614;3.908;2022-10-16T07:46:16;19.70;1.00
51091;DHT22;37136;43.614;3.908;2022-10-16T07:48:43;19.80;1.00
51091;DHT22;37136;43.614;3.908;2022-10-16T07:51:13;19.90;1.00
51091;DHT22;37136;43.614;3.908;2022-10-16T07:53:39;19.80;1.00
51091;DHT22;37136;43.614;3.908;2022-10-16T07:56:07;19.80;1.00
51091;DHT22;37136;43.614;3.908;2022-10-16T07:58:34;19.90;1.00
51091;DHT22;37136;43.614;3.908;2022-10-16T08:01:05;19.90;1.00
51091;DHT22;37136;43.614;3.908;2022-10-16T08:03:32;20.00;1.00
51091;DHT22;37136;43.614;3.908;2022-10-16T08:05:59;19.90;1.00
51091;DHT22;37136;43.614;3.908;2022-10-16T08:08:25;19.80;1.00
51091;DHT22;37136;43.614;3.908;2022-10-16T08:10:51;19.80;1.00
51091;DHT22;37136;43.614;3.908;2022-10-16T08:13:16;19.80;1.00
51091;DHT22;37136;43.614;3.908;2022-10-16T08:15:43;19.90;1.00
51091;DHT22;37136;43.614;3.908;2022-10-16T08:18:11;19.90;1.00
51091;DHT22;37136;43.614;3.908;2022-10-16T08:20:36;19.90;1.00
51091;DHT22;37136;43.614;3.908;2022-10-16T08:23:03;19.90;1.00
51091;DHT22;37136;43.614;3.908;2022-10-16T08:25:29;19.80;1.00
51091;DHT22;37136;43.614;3.908;2022-10-16T08:27:55;19.80;1.00
51091;DHT22;37136;43.614;3.908;2022-10-16T08:30:22;19.80;1.00
51091;DHT22;37136;43.614;3.908;2022-10-16T08:32:48;19.80;1.00
51091;DHT22;37136;43.614;3.908;2022-10-16T08:35:15;19.70;1.00
51091;DHT22;37136;43.614;3.908;2022-10-16T08:37:41;19.80;1.00
51091;DHT22;37136;43.614;3.908;2022-10-16T08:46:04;19.90;1.00
51091;DHT22;37136;43.614;3.908;2022-10-16T08:50:57;20.10;1.00
51091;DHT22;37136;43.614;3.908;2022-10-16T08:53:31;20.20;1.00
51091;DHT22;37136;43.614;3.908;2022-10-16T08:55:59;20.20;1.00
51091;DHT22;37136;43.614;3.908;2022-10-16T08:58:29;20.20;1.00
51091;DHT22;37136;43.614;3.908;2022-10-16T09:01:04;20.20;1.00
51091;DHT22;37136;43.614;3.908;2022-10-16T09:11:42;20.00;1.00
51091;DHT22;37136;43.614;3.908;2022-10-16T09:20:13;20.10;1.00
51091;DHT22;37136;43.614;3.908;2022-10-16T09:22:40;20.20;1.00
51091;DHT22;37136;43.614;3.908;2022-10-16T09:25:15;20.00;1.00
51091;DHT22;37136;43.614;3.908;2022-10-16T09:27:44;20.10;1.00
51091;DHT22;37136;43.614;3.908;2022-10-16T09:30:17;20.00;1.00
51091;DHT22;37136;43.614;3.908;2022-10-16T09:32:44;20.10;1.00
51091;DHT22;37136;43.614;3.908;2022-10-16T09:35:49;20.10;1.00
51091;DHT22;37136;43.614;3.908;2022-10-16T09:38:08;20.20;1.00
51091;DHT22;37136;43.614;3.908;2022-10-16T09:40:39;20.30;1.00
51091;DHT22;37136;43.614;3.908;2022-10-16T09:43:26;20.30;1.00
51091;DHT22;37136;43.614;3.908;2022-10-16T09:45:59;20.40;1.00
51091;DHT22;37136;43.614;3.908;2022-10-16T09:48:37;20.30;1.00
51091;DHT22;37136;43.614;3.908;2022-10-16T09:51:06;20.40;1.00
51091;DHT22;37136;43.614;3.908;2022-10-16T09:53:45;20.60;1.00
51091;DHT22;37136;43.614;3.908;2022-10-16T09:56:21;20.70;1.00
51091;DHT22;37136;43.614;3.908;2022-10-16T09:58:52;21.60;1.00
51091;DHT22;37136;43.614;3.908;2022-10-16T10:01:19;22.20;1.00
51091;DHT22;37136;43.614;3.908;2022-10-16T10:03:46;22.30;1.00
51091;DHT22;37136;43.614;3.908;2022-10-16T10:06:23;22.20;1.00
51091;DHT22;37136;43.614;3.908;2022-10-16T10:09:05;22.20;1.00
51091;DHT22;37136;43.614;3.908;2022-10-16T10:11:50;22.00;1.00
51091;DHT22;37136;43.614;3.908;2022-10-16T10:17:13;22.20;1.00
51091;DHT22;37136;43.614;3.908;2022-10-16T10:19:40;22.20;1.00
51091;DHT22;37136;43.614;3.908;2022-10-16T10:22:38;22.40;1.00
51091;DHT22;37136;43.614;3.908;2022-10-16T10:25:12;22.60;1.00
51091;DHT22;37136;43.614;3.908;2022-10-16T10:33:36;22.70;1.00
51091;DHT22;37136;43.614;3.908;2022-10-16T10:47:21;22.60;1.00
51091;DHT22;37136;43.614;3.908;2022-10-16T10:52:34;22.30;1.00
51091;DHT22;37136;43.614;3.908;2022-10-16T10:58:00;22.70;1.00
51091;DHT22;37136;43.614;3.908;2022-10-16T11:06:12;22.10;1.00
51091;DHT22;37136;43.614;3.908;2022-10-16T11:08:50;22.20;1.00
51091;DHT22;37136;43.614;3.908;2022-10-16T11:11:24;22.60;1.00
51091;DHT22;37136;43.614;3.908;2022-10-16T11:14:12;22.40;1.00
51091;DHT22;37136;43.614;3.908;2022-10-16T11:16:52;22.20;1.00
51091;DHT22;37136;43.614;3.908;2022-10-16T11:22:38;22.50;1.00
51091;DHT22;37136;43.614;3.908;2022-10-16T11:25:19;22.50;1.00
51091;DHT22;37136;43.614;3.908;2022-10-16T11:27:55;22.70;1.00
51091;DHT22;37136;43.614;3.908;2022-10-16T11:30:28;23.10;1.00
51091;DHT22;37136;43.614;3.908;2022-10-16T11:33:49;23.40;1.00
51091;DHT22;37136;43.614;3.908;2022-10-16T11:36:23;22.30;1.00
51091;DHT22;37136;43.614;3.908;2022-10-16T11:39:22;22.30;1.00
51091;DHT22;37136;43.614;3.908;2022-10-16T11:45:22;23.10;1.00
51091;DHT22;37136;43.614;3.908;2022-10-16T11:53:45;23.10;1.00
51091;DHT22;37136;43.614;3.908;2022-10-16T11:56:20;23.00;1.00
51091;DHT22;37136;43.614;3.908;2022-10-16T11:59:00;23.40;1.00
51091;DHT22;37136;43.614;3.908;2022-10-16T12:07:05;23.20;1.00
51091;DHT22;37136;43.614;3.908;2022-10-16T12:09:31;23.30;1.00
51091;DHT22;37136;43.614;3.908;2022-10-16T12:11:58;23.30;1.00
51091;DHT22;37136;43.614;3.908;2022-10-16T12:14:38;23.30;1.00
51091;DHT22;37136;43.614;3.908;2022-10-16T12:17:25;23.40;1.00
51091;DHT22;37136;43.614;3.908;2022-10-16T12:22:50;23.60;1.00
51091;DHT22;37136;43.614;3.908;2022-10-16T12:25:39;23.40;1.00
51091;DHT22;37136;43.614;3.908;2022-10-16T12:30:40;22.90;1.00
51091;DHT22;37136;43.614;3.908;2022-10-16T12:33:21;23.30;1.00
51091;DHT22;37136;43.614;3.908;2022-10-16T12:35:47;23.60;1.00
51091;DHT22;37136;43.614;3.908;2022-10-16T12:41:06;23.20;1.00
51091;DHT22;37136;43.614;3.908;2022-10-16T12:43:39;22.80;1.00
51091;DHT22;37136;43.614;3.908;2022-10-16T12:48:42;23.20;1.00
51091;DHT22;37136;43.614;3.908;2022-10-16T12:51:25;23.00;1.00
51091;DHT22;37136;43.614;3.908;2022-10-16T13:05:26;23.30;1.00
51091;DHT22;37136;43.614;3.908;2022-10-16T13:08:12;23.00;1.00
51091;DHT22;37136;43.614;3.908;2022-10-16T13:16:26;23.00;1.00
51091;DHT22;37136;43.614;3.908;2022-10-16T13:29:06;22.70;1.00
51091;DHT22;37136;43.614;3.908;2022-10-16T13:31:32;22.70;1.00
51091;DHT22;37136;43.614;3.908;2022-10-16T13:34:00;22.80;1.00
51091;DHT22;37136;43.614;3.908;2022-10-16T13:36:34;22.60;1.00
51091;DHT22;37136;43.614;3.908;2022-10-16T13:41:45;22.50;1.00
51091;DHT22;37136;43.614;3.908;2022-10-16T13:44:34;22.50;1.00
51091;DHT22;37136;43.614;3.908;2022-10-16T13:47:02;22.80;1.00
51091;DHT22;37136;43.614;3.908;2022-10-16T13:49:28;22.80;1.00
51091;DHT22;37136;43.614;3.908;2022-10-16T13:51:55;22.40;1.00
51091;DHT22;37136;43.614;3.908;2022-10-16T13:54:22;22.40;1.00
51091;DHT22;37136;43.614;3.908;2022-10-16T13:56:48;22.60;1.00
51091;DHT22;37136;43.614;3.908;2022-10-16T14:01:49;22.40;1.00
51091;DHT22;37136;43.614;3.908;2022-10-16T14:04:17;22.50;1.00
51091;DHT22;37136;43.614;3.908;2022-10-16T14:06:45;23.00;1.00
51091;DHT22;37136;43.614;3.908;2022-10-16T14:09:14;23.10;1.00
51091;DHT22;37136;43.614;3.908;2022-10-16T14:11:49;23.10;1.00
51091;DHT22;37136;43.614;3.908;2022-10-16T14:14:18;23.00;1.00
51091;DHT22;37136;43.614;3.908;2022-10-16T14:16:44;23.10;1.00
51091;DHT22;37136;43.614;3.908;2022-10-16T14:19:30;23.20;1.00
51091;DHT22;37136;43.614;3.908;2022-10-16T14:21:56;23.00;1.00
51091;DHT22;37136;43.614;3.908;2022-10-16T14:24:32;23.10;1.00
51091;DHT22;37136;43.614;3.908;2022-10-16T14:26:59;23.10;1.00
51091;DHT22;37136;43.614;3.908;2022-10-16T14:29:27;23.10;1.00
51091;DHT22;37136;43.614;3.908;2022-10-16T14:34:32;22.90;1.00
51091;DHT22;37136;43.614;3.908;2022-10-16T14:39:52;22.80;1.00
51091;DHT22;37136;43.614;3.908;2022-10-16T14:42:21;22.60;1.00
51091;DHT22;37136;43.614;3.908;2022-10-16T14:44:50;22.50;1.00
51091;DHT22;37136;43.614;3.908;2022-10-16T14:47:18;22.30;1.00
51091;DHT22;37136;43.614;3.908;2022-10-16T14:49:47;22.40;1.00
51091;DHT22;37136;43.614;3.908;2022-10-16T14:52:14;22.40;1.00
51091;DHT22;37136;43.614;3.908;2022-10-16T14:54:40;22.30;1.00
51091;DHT22;37136;43.614;3.908;2022-10-16T14:57:22;22.10;1.00
51091;DHT22;37136;43.614;3.908;2022-10-16T14:59:49;22.20;1.00
51091;DHT22;37136;43.614;3.908;2022-10-16T15:02:35;22.20;1.00
51091;DHT22;37136;43.614;3.908;2022-10-16T15:05:25;22.20;1.00
51091;DHT22;37136;43.614;3.908;2022-10-16T15:07:53;22.30;1.00
51091;DHT22;37136;43.614;3.908;2022-10-16T15:10:21;22.00;1.00
51091;DHT22;37136;43.614;3.908;2022-10-16T15:12:47;22.00;1.00
51091;DHT22;37136;43.614;3.908;2022-10-16T15:15:33;22.10;1.00
51091;DHT22;37136;43.614;3.908;2022-10-16T15:17:59;22.00;1.00
51091;DHT22;37136;43.614;3.908;2022-10-16T15:20:35;22.10;1.00
51091;DHT22;37136;43.614;3.908;2022-10-16T15:23:13;22.20;1.00
51091;DHT22;37136;43.614;3.908;2022-10-16T15:25:50;22.10;1.00
51091;DHT22;37136;43.614;3.908;2022-10-16T15:28:17;21.80;1.00
51091;DHT22;37136;43.614;3.908;2022-10-16T15:30:43;21.80;1.00
51091;DHT22;37136;43.614;3.908;2022-10-16T15:33:18;21.70;1.00
51091;DHT22;37136;43.614;3.908;2022-10-16T15:35:51;21.90;1.00
51091;DHT22;37136;43.614;3.908;2022-10-16T15:38:18;21.70;1.00
51091;DHT22;37136;43.614;3.908;2022-10-16T15:40:46;21.70;1.00
51091;DHT22;37136;43.614;3.908;2022-10-16T15:43:12;21.80;1.00
51091;DHT22;37136;43.614;3.908;2022-10-16T15:45:38;21.80;1.00
51091;DHT22;37136;43.614;3.908;2022-10-16T15:48:04;21.70;1.00
51091;DHT22;37136;43.614;3.908;2022-10-16T15:50:31;21.70;1.00
51091;DHT22;37136;43.614;3.908;2022-10-16T15:52:57;21.70;1.00
51091;DHT22;37136;43.614;3.908;2022-10-16T15:55:23;21.70;1.00
51091;DHT22;37136;43.614;3.908;2022-10-16T15:57:49;21.70;1.00
51091;DHT22;37136;43.614;3.908;2022-10-16T16:00:17;21.80;1.00
51091;DHT22;37136;43.614;3.908;2022-10-16T16:02:43;21.60;1.00
51091;DHT22;37136;43.614;3.908;2022-10-16T16:05:10;21.60;1.00
51091;DHT22;37136;43.614;3.908;2022-10-16T16:07:38;21.50;1.00
51091;DHT22;37136;43.614;3.908;2022-10-16T16:10:06;21.50;1.00
51091;DHT22;37136;43.614;3.908;2022-10-16T16:12:33;21.50;1.00
51091;DHT22;37136;43.614;3.908;2022-10-16T16:14:58;21.50;1.00
51091;DHT22;37136;43.614;3.908;2022-10-16T16:17:24;21.40;1.00
51091;DHT22;37136;43.614;3.908;2022-10-16T16:19:50;21.40;1.00
51091;DHT22;37136;43.614;3.908;2022-10-16T16:22:16;21.30;1.00
51091;DHT22;37136;43.614;3.908;2022-10-16T16:24:42;21.20;1.00
51091;DHT22;37136;43.614;3.908;2022-10-16T16:27:08;21.30;1.00
51091;DHT22;37136;43.614;3.908;2022-10-16T16:29:34;21.30;1.00
51091;DHT22;37136;43.614;3.908;2022-10-16T16:32:00;21.20;1.00
51091;DHT22;37136;43.614;3.908;2022-10-16T16:34:27;21.20;1.00
51091;DHT22;37136;43.614;3.908;2022-10-16T16:36:53;21.20;1.00
51091;DHT22;37136;43.614;3.908;2022-10-16T16:39:19;21.20;1.00
51091;DHT22;37136;43.614;3.908;2022-10-16T16:41:45;21.10;1.00
51091;DHT22;37136;43.614;3.908;2022-10-16T16:44:11;21.10;1.00
51091;DHT22;37136;43.614;3.908;2022-10-16T16:46:37;21.00;1.00
51091;DHT22;37136;43.614;3.908;2022-10-16T16:49:06;21.00;1.00
51091;DHT22;37136;43.614;3.908;2022-10-16T16:51:32;20.90;1.00
51091;DHT22;37136;43.614;3.908;2022-10-16T16:53:58;20.90;1.00
51091;DHT22;37136;43.614;3.908;2022-10-16T16:56:25;20.90;1.00
51091;DHT22;37136;43.614;3.908;2022-10-16T16:58:53;20.80;1.00
51091;DHT22;37136;43.614;3.908;2022-10-16T17:01:20;20.80;1.00
51091;DHT22;37136;43.614;3.908;2022-10-16T17:03:48;20.80;1.00
51091;DHT22;37136;43.614;3.908;2022-10-16T17:06:15;20.80;1.00
51091;DHT22;37136;43.614;3.908;2022-10-16T17:08:41;20.80;1.00
51091;DHT22;37136;43.614;3.908;2022-10-16T17:11:13;20.90;1.00
51091;DHT22;37136;43.614;3.908;2022-10-16T17:13:40;20.80;1.00
51091;DHT22;37136;43.614;3.908;2022-10-16T17:16:06;20.90;1.00
51091;DHT22;37136;43.614;3.908;2022-10-16T17:18:32;20.90;2.30
51091;DHT22;37136;43.614;3.908;2022-10-16T17:20:59;20.90;1.00
51091;DHT22;37136;43.614;3.908;2022-10-16T17:23:25;20.80;1.00
51091;DHT22;37136;43.614;3.908;2022-10-16T17:25:51;20.80;1.00
51091;DHT22;37136;43.614;3.908;2022-10-16T17:28:17;20.80;1.10
51091;DHT22;37136;43.614;3.908;2022-10-16T17:30:43;20.90;1.00
51091;DHT22;37136;43.614;3.908;2022-10-16T17:33:10;20.80;1.00
51091;DHT22;37136;43.614;3.908;2022-10-16T17:35:39;20.80;1.00
51091;DHT22;37136;43.614;3.908;2022-10-16T17:38:05;20.80;1.00
51091;DHT22;37136;43.614;3.908;2022-10-16T17:40:31;20.80;1.00
51091;DHT22;37136;43.614;3.908;2022-10-16T17:42:57;20.80;1.00
51091;DHT22;37136;43.614;3.908;2022-10-16T17:45:23;20.80;1.00
51091;DHT22;37136;43.614;3.908;2022-10-16T17:47:49;20.80;1.00
51091;DHT22;37136;43.614;3.908;2022-10-16T17:50:14;20.80;1.00
51091;DHT22;37136;43.614;3.908;2022-10-16T17:52:40;20.80;1.00
51091;DHT22;37136;43.614;3.908;2022-10-16T17:55:06;20.80;1.00
51091;DHT22;37136;43.614;3.908;2022-10-16T17:57:32;20.80;1.00
51091;DHT22;37136;43.614;3.908;2022-10-16T17:59:58;20.80;1.00
51091;DHT22;37136;43.614;3.908;2022-10-16T18:02:24;20.80;1.00
51091;DHT22;37136;43.614;3.908;2022-10-16T18:04:50;20.80;1.00
51091;DHT22;37136;43.614;3.908;2022-10-16T18:07:17;20.80;1.00
51091;DHT22;37136;43.614;3.908;2022-10-16T18:09:42;20.70;1.00
51091;DHT22;37136;43.614;3.908;2022-10-16T18:12:08;20.70;1.00
51091;DHT22;37136;43.614;3.908;2022-10-16T18:14:34;20.70;1.00
51091;DHT22;37136;43.614;3.908;2022-10-16T18:17:00;20.80;1.00